• Join FlightAware (Why Join?)
  • Login
  • US Flag 
02:02AM EST


 

Airport Tracker/Info


-or-


 

Live Flight TrackerFlight Track Log ✈ MTN8474 ✈ 28-Jun-2013 ✈ KLCK - KPKB

Flight Track Log - Related Links

Times and Time Zones

All times are in EDT time to prevent confusion due to time zone crossing. See the MTN8474 flight status page for this flight to view local times or setup timezone preferences in your user account.

Time Position Orientation Groundspeed Altitude Reporting Facility
EDT Latitude Longitude Course Direction KTS MPH feet Rate Location/Type
07:07AM 39.8178 -82.9269 109° East 85 98 1,000  Level Indianapolis Center
07:08AM 39.7933 -82.9419 205° Southwest 116 133 1,900 780 Climbing Indianapolis Center
07:09AM 39.7806 -82.8992 111° Southeast 139 160 2,700 780 Climbing Indianapolis Center
07:10AM 39.7700 -82.8539 107° East 134 154 3,500 720 Climbing Indianapolis Center
07:11AM 39.7600 -82.8033 104° East 140 161 4,200 720 Climbing Indianapolis Center
07:12AM 39.7525 -82.7506 100° East 141 162 5,000 720 Climbing Indianapolis Center
07:13AM 39.7160 -82.6106 109° East  Level Estimated
07:13AM 39.7444 -82.7003 102° East 144 166 5,700  Level Indianapolis Center
07:14AM 39.7303 -82.6517 111° Southeast 144 166 6,400 600 Climbing Indianapolis Center
07:15AM 39.7158 -82.6033 111° Southeast 144 166 7,000 240 Climbing Indianapolis Center
07:17AM 39.6922 -82.5397 116° Southeast 177 204 7,000  Level Indianapolis Center
07:18AM 39.6781 -82.4861 109° East 190 219 7,000  Level Indianapolis Center
07:19AM 39.6553 -82.4147 112° Southeast 179 206 7,000  Level Indianapolis Center
07:20AM 39.6306 -82.3339 112° Southeast 179 206 7,000  Level Indianapolis Center
07:21AM 39.6150 -82.2808 111° Southeast 179 206 7,000  Level Indianapolis Center
07:22AM 39.5964 -82.2208 112° Southeast 179 206 7,000  Level Indianapolis Center
07:23AM 39.5769 -82.1631 114° Southeast 176 203 7,000 -60 Level Indianapolis Center
07:24AM 39.5533 -82.0911 113° Southeast 178 205 6,900 -240 Descending Indianapolis Center
07:25AM 39.5339 -82.0258 111° Southeast 185 213 6,600 -300 Descending Indianapolis Center
07:26AM 39.5136 -81.9594 112° Southeast 192 221 6,400 -300 Descending Indianapolis Center
07:27AM 39.4928 -81.8986 114° Southeast 190 219 6,000 -420 Descending Indianapolis Center
07:28AM 39.4719 -81.8350 113° Southeast 190 219 5,600 -480 Descending Indianapolis Center
07:29AM 39.4517 -81.7686 112° Southeast 193 222 5,100 -600 Descending Indianapolis Center
07:30AM 39.4303 -81.7039 113° Southeast 194 223 4,400 -660 Descending Indianapolis Center
07:31AM 39.4094 -81.6381 112° Southeast 196 226 3,800 -660 Descending Indianapolis Center
07:32AM 39.3881 -81.5750 114° Southeast 195 224 3,100 -600 Descending Indianapolis Center
07:33AM 39.3781 -81.5053 100° East 200 230 2,600 -600 Descending Indianapolis Center
07:34AM 39.3700 -81.4328 98° East 195 224 1,900 -720 Descending Indianapolis Center